CheckWX is a tool to help pilots better visualize weather data.  It is not intended as a substitute for an official pre-flight weather briefing.

04:09:39 UTC

EKYT METAR
Aalborg Airport
Aalborg, Denmark
Current

20 mins ago

EKYT 180350Z AUTO 15007KT 4100 BR NCD 03/02 Q1014
Observed
Feb-18 @ 03:50 UTC
Wind
  • 150° at 7 KTS
Visibility
4,104 meters
Flight Rules
IFR
Conditions
Mist
Cloud Levels
  • Clear skies
Temperature
C / 37°F
Dewpoint
C / 36°F
Humidity
93%
Altimeter
29.94" Hg
Pressure
1013.92 hPa
Previous

50 mins ago

EKYT 180320Z AUTO 16009KT 4600 BR NCD 04/03 Q1014
Observed
Feb-18 @ 03:20 UTC
Wind
  • 160° at 9 KTS
Visibility
4,603 meters
Flight Rules
IFR
Conditions
Mist
Cloud Levels
  • Clear skies
Temperature
C / 39°F
Dewpoint
C / 37°F
Humidity
93%
Altimeter
29.94" Hg
Pressure
1013.92 hPa
Previous

1 hour ago

EKYT 180250Z AUTO 16007KT 4700 BR NCD 03/02 Q1015
Observed
Feb-18 @ 02:50 UTC
Wind
  • 160° at 7 KTS
Visibility
4,699 meters
Flight Rules
IFR
Conditions
Mist
Cloud Levels
  • Clear skies
Temperature
C / 37°F
Dewpoint
C / 36°F
Humidity
93%
Altimeter
29.97" Hg
Pressure
1014.92 hPa